sensor_id;sensor_type;location;lat;lon;timestamp;P1;durP1;ratioP1;P2;durP2;ratioP2
69712;SDS011;56980;51.826;4.424;2022-07-29T00:01:59;2.30;;;1.00;;
69712;SDS011;56980;51.826;4.424;2022-07-29T00:04:24;4.03;;;0.90;;
69712;SDS011;56980;51.826;4.424;2022-07-29T00:06:50;2.70;;;1.03;;
69712;SDS011;56980;51.826;4.424;2022-07-29T00:09:15;1.67;;;0.90;;
69712;SDS011;56980;51.826;4.424;2022-07-29T00:11:41;2.80;;;1.20;;
69712;SDS011;56980;51.826;4.424;2022-07-29T00:14:06;4.05;;;0.98;;
69712;SDS011;56980;51.826;4.424;2022-07-29T00:16:32;2.87;;;1.10;;
69712;SDS011;56980;51.826;4.424;2022-07-29T00:18:57;2.27;;;0.93;;
69712;SDS011;56980;51.826;4.424;2022-07-29T00:21:23;3.93;;;1.03;;
69712;SDS011;56980;51.826;4.424;2022-07-29T00:23:48;13.97;;;1.60;;
69712;SDS011;56980;51.826;4.424;2022-07-29T00:26:13;4.15;;;0.90;;
69712;SDS011;56980;51.826;4.424;2022-07-29T00:28:39;2.17;;;1.10;;
69712;SDS011;56980;51.826;4.424;2022-07-29T00:31:04;5.30;;;1.03;;
69712;SDS011;56980;51.826;4.424;2022-07-29T00:33:29;2.00;;;0.83;;
69712;SDS011;56980;51.826;4.424;2022-07-29T00:35:55;3.20;;;1.00;;
69712;SDS011;56980;51.826;4.424;2022-07-29T00:38:20;2.73;;;1.20;;
69712;SDS011;56980;51.826;4.424;2022-07-29T00:40:46;3.93;;;1.20;;
69712;SDS011;56980;51.826;4.424;2022-07-29T00:43:12;4.80;;;1.65;;
69712;SDS011;56980;51.826;4.424;2022-07-29T00:45:38;3.03;;;1.00;;
69712;SDS011;56980;51.826;4.424;2022-07-29T00:48:04;3.88;;;0.95;;
69712;SDS011;56980;51.826;4.424;2022-07-29T00:50:31;3.83;;;1.20;;
69712;SDS011;56980;51.826;4.424;2022-07-29T00:52:58;1.75;;;1.15;;
69712;SDS011;56980;51.826;4.424;2022-07-29T00:55:23;3.10;;;1.30;;
69712;SDS011;56980;51.826;4.424;2022-07-29T00:57:49;2.67;;;0.90;;
69712;SDS011;56980;51.826;4.424;2022-07-29T01:00:19;5.55;;;1.20;;
69712;SDS011;56980;51.826;4.424;2022-07-29T01:02:47;2.60;;;0.90;;
69712;SDS011;56980;51.826;4.424;2022-07-29T01:05:16;3.67;;;1.08;;
69712;SDS011;56980;51.826;4.424;2022-07-29T01:07:43;4.65;;;1.08;;
69712;SDS011;56980;51.826;4.424;2022-07-29T01:10:11;2.50;;;1.15;;
69712;SDS011;56980;51.826;4.424;2022-07-29T01:12:38;2.90;;;1.20;;
69712;SDS011;56980;51.826;4.424;2022-07-29T01:15:05;1.57;;;0.97;;
69712;SDS011;56980;51.826;4.424;2022-07-29T01:17:42;3.42;;;1.10;;
69712;SDS011;56980;51.826;4.424;2022-07-29T01:26:09;3.10;;;0.77;;
69712;SDS011;56980;51.826;4.424;2022-07-29T01:28:59;4.20;;;1.00;;
69712;SDS011;56980;51.826;4.424;2022-07-29T01:31:39;3.88;;;0.93;;
69712;SDS011;56980;51.826;4.424;2022-07-29T01:34:15;6.72;;;1.10;;
69712;SDS011;56980;51.826;4.424;2022-07-29T01:36:48;1.60;;;1.05;;
69712;SDS011;56980;51.826;4.424;2022-07-29T01:39:27;2.63;;;1.52;;
69712;SDS011;56980;51.826;4.424;2022-07-29T01:41:59;4.17;;;1.03;;
69712;SDS011;56980;51.826;4.424;2022-07-29T01:44:35;2.30;;;1.10;;
69712;SDS011;56980;51.826;4.424;2022-07-29T01:47:14;1.90;;;0.73;;
69712;SDS011;56980;51.826;4.424;2022-07-29T01:49:46;4.05;;;1.10;;
69712;SDS011;56980;51.826;4.424;2022-07-29T01:52:19;2.63;;;1.00;;
69712;SDS011;56980;51.826;4.424;2022-07-29T01:54:49;3.23;;;1.33;;
69712;SDS011;56980;51.826;4.424;2022-07-29T01:57:20;8.15;;;1.10;;
69712;SDS011;56980;51.826;4.424;2022-07-29T01:59:49;1.80;;;1.30;;
69712;SDS011;56980;51.826;4.424;2022-07-29T02:02:17;7.28;;;1.58;;
69712;SDS011;56980;51.826;4.424;2022-07-29T02:04:44;3.92;;;1.10;;
69712;SDS011;56980;51.826;4.424;2022-07-29T02:07:13;1.63;;;1.10;;
69712;SDS011;56980;51.826;4.424;2022-07-29T02:09:43;3.72;;;1.33;;
69712;SDS011;56980;51.826;4.424;2022-07-29T02:12:10;2.65;;;1.10;;
69712;SDS011;56980;51.826;4.424;2022-07-29T02:14:41;2.08;;;1.02;;
69712;SDS011;56980;51.826;4.424;2022-07-29T02:17:12;2.10;;;1.00;;
69712;SDS011;56980;51.826;4.424;2022-07-29T02:19:40;2.67;;;1.30;;
69712;SDS011;56980;51.826;4.424;2022-07-29T02:22:09;4.55;;;1.00;;
69712;SDS011;56980;51.826;4.424;2022-07-29T02:24:37;2.33;;;1.33;;
69712;SDS011;56980;51.826;4.424;2022-07-29T02:27:05;2.78;;;1.20;;
69712;SDS011;56980;51.826;4.424;2022-07-29T02:29:32;3.88;;;1.30;;
69712;SDS011;56980;51.826;4.424;2022-07-29T02:31:59;3.10;;;1.30;;
69712;SDS011;56980;51.826;4.424;2022-07-29T02:34:28;3.28;;;1.33;;
69712;SDS011;56980;51.826;4.424;2022-07-29T02:36:55;3.83;;;1.40;;
69712;SDS011;56980;51.826;4.424;2022-07-29T02:39:20;11.50;;;1.20;;
69712;SDS011;56980;51.826;4.424;2022-07-29T02:41:48;3.35;;;1.30;;
69712;SDS011;56980;51.826;4.424;2022-07-29T02:44:17;3.27;;;1.50;;
69712;SDS011;56980;51.826;4.424;2022-07-29T02:46:47;2.38;;;1.13;;
69712;SDS011;56980;51.826;4.424;2022-07-29T02:52:00;3.58;;;1.52;;
69712;SDS011;56980;51.826;4.424;2022-07-29T02:54:33;2.40;;;1.20;;
69712;SDS011;56980;51.826;4.424;2022-07-29T02:57:06;3.20;;;1.30;;
69712;SDS011;56980;51.826;4.424;2022-07-29T02:59:38;1.73;;;0.90;;
69712;SDS011;56980;51.826;4.424;2022-07-29T03:02:07;4.07;;;1.30;;
69712;SDS011;56980;51.826;4.424;2022-07-29T03:04:46;4.40;;;1.60;;
69712;SDS011;56980;51.826;4.424;2022-07-29T03:07:14;2.92;;;1.27;;
69712;SDS011;56980;51.826;4.424;2022-07-29T03:09:43;3.93;;;1.33;;
69712;SDS011;56980;51.826;4.424;2022-07-29T03:12:10;2.45;;;1.17;;
69712;SDS011;56980;51.826;4.424;2022-07-29T03:14:37;7.25;;;1.88;;
69712;SDS011;56980;51.826;4.424;2022-07-29T03:17:03;2.70;;;1.17;;
69712;SDS011;56980;51.826;4.424;2022-07-29T03:19:29;2.90;;;1.30;;
69712;SDS011;56980;51.826;4.424;2022-07-29T03:21:57;2.92;;;1.50;;
69712;SDS011;56980;51.826;4.424;2022-07-29T03:24:34;4.68;;;1.30;;
69712;SDS011;56980;51.826;4.424;2022-07-29T03:27:01;4.33;;;1.20;;
69712;SDS011;56980;51.826;4.424;2022-07-29T03:29:28;6.53;;;1.00;;
69712;SDS011;56980;51.826;4.424;2022-07-29T03:31:54;2.67;;;1.38;;
69712;SDS011;56980;51.826;4.424;2022-07-29T03:34:19;3.97;;;1.53;;
69712;SDS011;56980;51.826;4.424;2022-07-29T03:36:45;2.28;;;1.35;;
69712;SDS011;56980;51.826;4.424;2022-07-29T03:39:11;3.10;;;1.45;;
69712;SDS011;56980;51.826;4.424;2022-07-29T03:41:41;4.35;;;1.20;;
69712;SDS011;56980;51.826;4.424;2022-07-29T03:44:09;4.73;;;1.40;;
69712;SDS011;56980;51.826;4.424;2022-07-29T03:46:36;3.10;;;1.33;;
69712;SDS011;56980;51.826;4.424;2022-07-29T03:49:04;3.35;;;1.13;;
69712;SDS011;56980;51.826;4.424;2022-07-29T03:51:33;6.45;;;1.50;;
69712;SDS011;56980;51.826;4.424;2022-07-29T03:53:59;3.50;;;1.30;;
69712;SDS011;56980;51.826;4.424;2022-07-29T03:56:24;2.60;;;1.60;;
69712;SDS011;56980;51.826;4.424;2022-07-29T03:58:52;3.53;;;1.38;;
69712;SDS011;56980;51.826;4.424;2022-07-29T04:01:18;4.07;;;1.45;;
69712;SDS011;56980;51.826;4.424;2022-07-29T04:03:45;4.80;;;1.60;;
69712;SDS011;56980;51.826;4.424;2022-07-29T04:06:11;4.70;;;2.00;;
69712;SDS011;56980;51.826;4.424;2022-07-29T04:08:37;5.20;;;1.50;;
69712;SDS011;56980;51.826;4.424;2022-07-29T04:11:03;2.83;;;1.30;;
69712;SDS011;56980;51.826;4.424;2022-07-29T04:13:30;4.50;;;1.65;;
69712;SDS011;56980;51.826;4.424;2022-07-29T04:15:55;3.20;;;1.55;;
69712;SDS011;56980;51.826;4.424;2022-07-29T04:18:21;3.87;;;1.43;;
69712;SDS011;56980;51.826;4.424;2022-07-29T04:20:46;3.73;;;1.30;;
69712;SDS011;56980;51.826;4.424;2022-07-29T04:23:12;2.30;;;1.60;;
69712;SDS011;56980;51.826;4.424;2022-07-29T04:25:38;4.43;;;1.20;;
69712;SDS011;56980;51.826;4.424;2022-07-29T04:28:04;2.63;;;1.00;;
69712;SDS011;56980;51.826;4.424;2022-07-29T04:30:29;4.20;;;1.58;;
69712;SDS011;56980;51.826;4.424;2022-07-29T04:32:56;4.05;;;1.38;;
69712;SDS011;56980;51.826;4.424;2022-07-29T04:35:21;3.57;;;2.00;;
69712;SDS011;56980;51.826;4.424;2022-07-29T04:37:46;4.43;;;1.90;;
69712;SDS011;56980;51.826;4.424;2022-07-29T04:40:12;3.90;;;1.40;;
69712;SDS011;56980;51.826;4.424;2022-07-29T04:42:38;2.75;;;1.52;;
69712;SDS011;56980;51.826;4.424;2022-07-29T04:45:04;2.53;;;1.48;;
69712;SDS011;56980;51.826;4.424;2022-07-29T04:47:30;6.13;;;1.73;;
69712;SDS011;56980;51.826;4.424;2022-07-29T04:49:55;12.83;;;2.00;;
69712;SDS011;56980;51.826;4.424;2022-07-29T04:52:21;5.67;;;1.70;;
69712;SDS011;56980;51.826;4.424;2022-07-29T04:54:47;2.80;;;1.83;;
69712;SDS011;56980;51.826;4.424;2022-07-29T04:57:12;2.57;;;1.33;;
69712;SDS011;56980;51.826;4.424;2022-07-29T04:59:38;4.23;;;1.60;;
69712;SDS011;56980;51.826;4.424;2022-07-29T05:02:03;5.20;;;1.77;;
69712;SDS011;56980;51.826;4.424;2022-07-29T05:04:28;5.40;;;1.60;;
69712;SDS011;56980;51.826;4.424;2022-07-29T05:06:54;2.97;;;1.93;;
69712;SDS011;56980;51.826;4.424;2022-07-29T05:09:19;3.10;;;1.60;;
69712;SDS011;56980;51.826;4.424;2022-07-29T05:11:44;4.10;;;2.07;;
69712;SDS011;56980;51.826;4.424;2022-07-29T05:14:10;3.17;;;1.90;;
69712;SDS011;56980;51.826;4.424;2022-07-29T05:16:35;6.30;;;1.90;;
69712;SDS011;56980;51.826;4.424;2022-07-29T05:19:01;4.18;;;1.50;;
69712;SDS011;56980;51.826;4.424;2022-07-29T05:21:26;5.17;;;1.80;;
69712;SDS011;56980;51.826;4.424;2022-07-29T05:23:51;4.20;;;1.73;;
69712;SDS011;56980;51.826;4.424;2022-07-29T05:26:17;4.47;;;1.70;;
69712;SDS011;56980;51.826;4.424;2022-07-29T05:28:42;3.17;;;1.70;;
69712;SDS011;56980;51.826;4.424;2022-07-29T05:31:07;3.03;;;1.50;;
69712;SDS011;56980;51.826;4.424;2022-07-29T05:33:33;4.33;;;2.10;;
69712;SDS011;56980;51.826;4.424;2022-07-29T05:35:58;3.87;;;1.90;;
69712;SDS011;56980;51.826;4.424;2022-07-29T05:38:24;4.20;;;2.00;;
69712;SDS011;56980;51.826;4.424;2022-07-29T05:40:49;8.87;;;2.20;;
69712;SDS011;56980;51.826;4.424;2022-07-29T05:43:14;3.80;;;2.03;;
69712;SDS011;56980;51.826;4.424;2022-07-29T05:45:40;5.17;;;2.00;;
69712;SDS011;56980;51.826;4.424;2022-07-29T05:48:05;3.93;;;1.90;;
69712;SDS011;56980;51.826;4.424;2022-07-29T05:50:30;3.33;;;1.93;;
69712;SDS011;56980;51.826;4.424;2022-07-29T05:52:56;5.90;;;1.90;;
69712;SDS011;56980;51.826;4.424;2022-07-29T05:55:21;5.07;;;2.10;;
69712;SDS011;56980;51.826;4.424;2022-07-29T05:57:46;7.70;;;1.93;;
69712;SDS011;56980;51.826;4.424;2022-07-29T06:00:12;3.93;;;1.70;;
69712;SDS011;56980;51.826;4.424;2022-07-29T06:02:37;6.50;;;1.88;;
69712;SDS011;56980;51.826;4.424;2022-07-29T06:05:03;5.70;;;1.97;;
69712;SDS011;56980;51.826;4.424;2022-07-29T06:07:28;3.53;;;1.60;;
69712;SDS011;56980;51.826;4.424;2022-07-29T06:09:53;5.13;;;2.03;;
69712;SDS011;56980;51.826;4.424;2022-07-29T06:12:19;4.77;;;1.87;;
69712;SDS011;56980;51.826;4.424;2022-07-29T06:14:44;3.20;;;1.80;;
69712;SDS011;56980;51.826;4.424;2022-07-29T06:17:10;4.73;;;1.83;;
69712;SDS011;56980;51.826;4.424;2022-07-29T06:19:37;5.30;;;1.80;;
69712;SDS011;56980;51.826;4.424;2022-07-29T06:22:02;3.90;;;1.90;;
69712;SDS011;56980;51.826;4.424;2022-07-29T06:24:28;4.40;;;1.93;;
69712;SDS011;56980;51.826;4.424;2022-07-29T06:26:53;4.37;;;1.90;;
69712;SDS011;56980;51.826;4.424;2022-07-29T06:29:19;8.20;;;2.13;;
69712;SDS011;56980;51.826;4.424;2022-07-29T06:31:44;3.87;;;1.90;;
69712;SDS011;56980;51.826;4.424;2022-07-29T06:34:22;6.10;;;2.03;;
69712;SDS011;56980;51.826;4.424;2022-07-29T06:36:51;3.67;;;2.00;;
69712;SDS011;56980;51.826;4.424;2022-07-29T06:39:17;6.10;;;2.20;;
69712;SDS011;56980;51.826;4.424;2022-07-29T06:41:46;4.53;;;1.67;;
69712;SDS011;56980;51.826;4.424;2022-07-29T06:44:13;7.22;;;1.80;;
69712;SDS011;56980;51.826;4.424;2022-07-29T06:46:39;3.30;;;1.80;;
69712;SDS011;56980;51.826;4.424;2022-07-29T06:49:04;5.43;;;2.38;;
69712;SDS011;56980;51.826;4.424;2022-07-29T06:51:30;7.63;;;1.97;;
69712;SDS011;56980;51.826;4.424;2022-07-29T06:53:55;3.00;;;1.70;;
69712;SDS011;56980;51.826;4.424;2022-07-29T06:56:22;4.82;;;1.88;;
69712;SDS011;56980;51.826;4.424;2022-07-29T06:58:47;5.80;;;2.37;;
69712;SDS011;56980;51.826;4.424;2022-07-29T07:01:13;4.20;;;2.23;;
69712;SDS011;56980;51.826;4.424;2022-07-29T07:03:38;4.73;;;1.70;;
69712;SDS011;56980;51.826;4.424;2022-07-29T07:06:03;6.00;;;1.80;;
69712;SDS011;56980;51.826;4.424;2022-07-29T07:08:29;3.93;;;1.60;;
69712;SDS011;56980;51.826;4.424;2022-07-29T07:10:54;4.73;;;1.80;;
69712;SDS011;56980;51.826;4.424;2022-07-29T07:13:21;4.72;;;1.63;;
69712;SDS011;56980;51.826;4.424;2022-07-29T07:15:46;5.27;;;2.17;;
69712;SDS011;56980;51.826;4.424;2022-07-29T07:18:16;4.57;;;1.92;;
69712;SDS011;56980;51.826;4.424;2022-07-29T07:20:41;5.40;;;1.80;;
69712;SDS011;56980;51.826;4.424;2022-07-29T07:23:07;3.00;;;1.77;;
69712;SDS011;56980;51.826;4.424;2022-07-29T07:25:32;5.90;;;1.80;;
69712;SDS011;56980;51.826;4.424;2022-07-29T07:28:01;4.70;;;2.00;;
69712;SDS011;56980;51.826;4.424;2022-07-29T07:30:27;6.15;;;2.00;;
69712;SDS011;56980;51.826;4.424;2022-07-29T07:32:53;8.60;;;2.13;;
69712;SDS011;56980;51.826;4.424;2022-07-29T07:35:18;7.47;;;1.88;;
69712;SDS011;56980;51.826;4.424;2022-07-29T07:37:44;2.70;;;1.73;;
69712;SDS011;56980;51.826;4.424;2022-07-29T07:40:10;4.43;;;2.05;;
69712;SDS011;56980;51.826;4.424;2022-07-29T07:42:40;5.73;;;1.80;;
69712;SDS011;56980;51.826;4.424;2022-07-29T07:45:06;5.07;;;1.60;;
69712;SDS011;56980;51.826;4.424;2022-07-29T07:47:34;8.25;;;1.92;;
69712;SDS011;56980;51.826;4.424;2022-07-29T07:50:04;8.68;;;1.85;;
69712;SDS011;56980;51.826;4.424;2022-07-29T07:52:33;4.25;;;1.60;;
69712;SDS011;56980;51.826;4.424;2022-07-29T07:54:59;7.13;;;2.00;;
69712;SDS011;56980;51.826;4.424;2022-07-29T07:57:25;4.80;;;2.07;;
69712;SDS011;56980;51.826;4.424;2022-07-29T07:59:50;7.68;;;1.50;;
69712;SDS011;56980;51.826;4.424;2022-07-29T08:02:16;6.70;;;1.90;;
69712;SDS011;56980;51.826;4.424;2022-07-29T08:04:41;4.03;;;1.73;;
69712;SDS011;56980;51.826;4.424;2022-07-29T08:07:07;5.03;;;1.67;;
69712;SDS011;56980;51.826;4.424;2022-07-29T08:09:34;5.88;;;1.67;;
69712;SDS011;56980;51.826;4.424;2022-07-29T08:12:00;8.47;;;2.23;;
69712;SDS011;56980;51.826;4.424;2022-07-29T08:14:28;6.25;;;1.90;;
69712;SDS011;56980;51.826;4.424;2022-07-29T08:16:57;4.65;;;1.88;;
69712;SDS011;56980;51.826;4.424;2022-07-29T08:19:23;2.63;;;1.50;;
69712;SDS011;56980;51.826;4.424;2022-07-29T08:21:48;3.93;;;1.73;;
69712;SDS011;56980;51.826;4.424;2022-07-29T08:24:14;8.35;;;1.95;;
69712;SDS011;56980;51.826;4.424;2022-07-29T08:26:58;7.53;;;1.80;;
69712;SDS011;56980;51.826;4.424;2022-07-29T08:29:23;9.80;;;1.83;;
69712;SDS011;56980;51.826;4.424;2022-07-29T08:31:48;3.53;;;1.60;;
69712;SDS011;56980;51.826;4.424;2022-07-29T08:34:14;7.20;;;2.00;;
69712;SDS011;56980;51.826;4.424;2022-07-29T08:36:39;2.73;;;1.30;;
69712;SDS011;56980;51.826;4.424;2022-07-29T08:39:05;5.90;;;1.70;;
69712;SDS011;56980;51.826;4.424;2022-07-29T08:41:30;6.10;;;1.60;;
69712;SDS011;56980;51.826;4.424;2022-07-29T08:43:56;4.97;;;1.80;;
69712;SDS011;56980;51.826;4.424;2022-07-29T08:46:21;3.43;;;1.27;;
69712;SDS011;56980;51.826;4.424;2022-07-29T08:48:47;4.85;;;1.80;;
69712;SDS011;56980;51.826;4.424;2022-07-29T08:51:14;5.65;;;1.70;;
69712;SDS011;56980;51.826;4.424;2022-07-29T08:53:41;3.78;;;1.70;;
69712;SDS011;56980;51.826;4.424;2022-07-29T08:56:08;4.83;;;1.50;;
69712;SDS011;56980;51.826;4.424;2022-07-29T08:58:38;4.97;;;1.60;;
69712;SDS011;56980;51.826;4.424;2022-07-29T09:01:04;3.78;;;1.60;;
69712;SDS011;56980;51.826;4.424;2022-07-29T09:03:31;2.65;;;1.55;;
69712;SDS011;56980;51.826;4.424;2022-07-29T09:05:59;4.45;;;2.08;;
69712;SDS011;56980;51.826;4.424;2022-07-29T09:08:26;4.63;;;1.87;;
69712;SDS011;56980;51.826;4.424;2022-07-29T09:10:53;8.55;;;2.33;;
69712;SDS011;56980;51.826;4.424;2022-07-29T09:13:20;4.25;;;1.63;;
69712;SDS011;56980;51.826;4.424;2022-07-29T09:15:46;7.15;;;2.47;;
69712;SDS011;56980;51.826;4.424;2022-07-29T09:18:12;6.63;;;2.47;;
69712;SDS011;56980;51.826;4.424;2022-07-29T09:20:57;6.95;;;2.10;;
69712;SDS011;56980;51.826;4.424;2022-07-29T09:23:58;6.15;;;1.77;;
69712;SDS011;56980;51.826;4.424;2022-07-29T09:26:45;5.87;;;2.00;;
69712;SDS011;56980;51.826;4.424;2022-07-29T09:29:20;4.05;;;1.58;;
69712;SDS011;56980;51.826;4.424;2022-07-29T09:31:48;5.05;;;1.60;;
69712;SDS011;56980;51.826;4.424;2022-07-29T09:34:16;4.60;;;1.60;;
69712;SDS011;56980;51.826;4.424;2022-07-29T09:36:48;5.32;;;1.80;;
69712;SDS011;56980;51.826;4.424;2022-07-29T09:39:15;5.40;;;1.60;;
69712;SDS011;56980;51.826;4.424;2022-07-29T09:41:53;8.82;;;1.40;;
69712;SDS011;56980;51.826;4.424;2022-07-29T09:44:21;7.88;;;1.90;;
69712;SDS011;56980;51.826;4.424;2022-07-29T09:46:57;9.70;;;2.03;;
69712;SDS011;56980;51.826;4.424;2022-07-29T09:49:30;7.13;;;2.20;;
69712;SDS011;56980;51.826;4.424;2022-07-29T09:52:14;7.07;;;1.67;;
69712;SDS011;56980;51.826;4.424;2022-07-29T09:54:40;5.90;;;1.95;;
69712;SDS011;56980;51.826;4.424;2022-07-29T09:57:07;3.50;;;1.50;;
69712;SDS011;56980;51.826;4.424;2022-07-29T09:59:37;7.00;;;1.98;;
69712;SDS011;56980;51.826;4.424;2022-07-29T10:02:11;8.13;;;1.65;;
69712;SDS011;56980;51.826;4.424;2022-07-29T10:04:41;5.22;;;1.65;;
69712;SDS011;56980;51.826;4.424;2022-07-29T10:07:07;5.00;;;1.37;;
69712;SDS011;56980;51.826;4.424;2022-07-29T10:09:34;5.10;;;1.73;;
69712;SDS011;56980;51.826;4.424;2022-07-29T10:12:04;9.30;;;1.58;;
69712;SDS011;56980;51.826;4.424;2022-07-29T10:14:42;5.05;;;1.40;;
69712;SDS011;56980;51.826;4.424;2022-07-29T10:17:11;4.53;;;1.50;;
69712;SDS011;56980;51.826;4.424;2022-07-29T10:19:37;7.00;;;2.07;;
69712;SDS011;56980;51.826;4.424;2022-07-29T10:22:07;6.60;;;2.05;;
69712;SDS011;56980;51.826;4.424;2022-07-29T10:24:34;6.27;;;2.00;;
69712;SDS011;56980;51.826;4.424;2022-07-29T10:27:01;5.70;;;1.58;;
69712;SDS011;56980;51.826;4.424;2022-07-29T10:29:28;6.32;;;1.55;;
69712;SDS011;56980;51.826;4.424;2022-07-29T10:37:42;6.63;;;1.73;;
69712;SDS011;56980;51.826;4.424;2022-07-29T10:40:26;5.07;;;1.38;;
69712;SDS011;56980;51.826;4.424;2022-07-29T10:43:26;4.03;;;1.10;;
69712;SDS011;56980;51.826;4.424;2022-07-29T10:46:01;2.22;;;1.20;;
69712;SDS011;56980;51.826;4.424;2022-07-29T10:48:27;4.05;;;1.30;;
69712;SDS011;56980;51.826;4.424;2022-07-29T10:50:57;6.33;;;1.70;;
69712;SDS011;56980;51.826;4.424;2022-07-29T10:53:24;3.72;;;1.10;;
69712;SDS011;56980;51.826;4.424;2022-07-29T10:56:22;2.97;;;1.00;;
69712;SDS011;56980;51.826;4.424;2022-07-29T11:01:56;6.50;;;1.40;;
69712;SDS011;56980;51.826;4.424;2022-07-29T11:05:21;3.30;;;1.48;;
69712;SDS011;56980;51.826;4.424;2022-07-29T11:07:15;6.87;;;1.53;;
69712;SDS011;56980;51.826;4.424;2022-07-29T11:09:41;6.03;;;1.73;;
69712;SDS011;56980;51.826;4.424;2022-07-29T11:12:52;5.78;;;1.52;;
69712;SDS011;56980;51.826;4.424;2022-07-29T11:15:02;6.32;;;1.40;;
69712;SDS011;56980;51.826;4.424;2022-07-29T11:20:31;9.02;;;2.13;;
69712;SDS011;56980;51.826;4.424;2022-07-29T11:22:59;6.47;;;1.70;;
69712;SDS011;56980;51.826;4.424;2022-07-29T11:25:25;5.43;;;1.42;;
69712;SDS011;56980;51.826;4.424;2022-07-29T11:27:51;4.37;;;1.67;;
69712;SDS011;56980;51.826;4.424;2022-07-29T11:30:19;6.13;;;1.88;;
69712;SDS011;56980;51.826;4.424;2022-07-29T11:32:44;4.23;;;1.83;;
69712;SDS011;56980;51.826;4.424;2022-07-29T11:35:22;5.00;;;1.98;;
69712;SDS011;56980;51.826;4.424;2022-07-29T11:43:57;4.25;;;1.70;;
69712;SDS011;56980;51.826;4.424;2022-07-29T11:46:44;3.30;;;1.47;;
69712;SDS011;56980;51.826;4.424;2022-07-29T11:49:19;8.20;;;1.63;;
69712;SDS011;56980;51.826;4.424;2022-07-29T11:54:21;4.60;;;1.90;;
69712;SDS011;56980;51.826;4.424;2022-07-29T11:56:51;4.05;;;1.65;;
69712;SDS011;56980;51.826;4.424;2022-07-29T11:59:17;3.43;;;1.70;;
69712;SDS011;56980;51.826;4.424;2022-07-29T12:01:54;3.75;;;1.85;;
69712;SDS011;56980;51.826;4.424;2022-07-29T12:04:21;3.33;;;2.10;;
69712;SDS011;56980;51.826;4.424;2022-07-29T12:06:51;6.68;;;1.67;;
69712;SDS011;56980;51.826;4.424;2022-07-29T12:09:20;5.72;;;2.00;;
69712;SDS011;56980;51.826;4.424;2022-07-29T12:11:46;5.60;;;1.50;;
69712;SDS011;56980;51.826;4.424;2022-07-29T12:14:28;5.53;;;1.65;;
69712;SDS011;56980;51.826;4.424;2022-07-29T12:16:55;6.10;;;1.98;;
69712;SDS011;56980;51.826;4.424;2022-07-29T12:19:21;3.15;;;1.67;;
69712;SDS011;56980;51.826;4.424;2022-07-29T12:21:47;4.53;;;1.87;;
69712;SDS011;56980;51.826;4.424;2022-07-29T12:24:14;3.50;;;1.95;;
69712;SDS011;56980;51.826;4.424;2022-07-29T12:26:52;6.80;;;1.87;;
69712;SDS011;56980;51.826;4.424;2022-07-29T12:29:23;4.13;;;1.85;;
69712;SDS011;56980;51.826;4.424;2022-07-29T12:31:53;6.50;;;1.98;;
69712;SDS011;56980;51.826;4.424;2022-07-29T12:34:19;5.10;;;2.13;;
69712;SDS011;56980;51.826;4.424;2022-07-29T12:36:47;6.53;;;2.37;;
69712;SDS011;56980;51.826;4.424;2022-07-29T12:39:14;3.70;;;2.10;;
69712;SDS011;56980;51.826;4.424;2022-07-29T12:41:42;3.50;;;2.20;;
69712;SDS011;56980;51.826;4.424;2022-07-29T12:44:07;5.30;;;1.93;;
69712;SDS011;56980;51.826;4.424;2022-07-29T12:46:33;5.13;;;2.13;;
69712;SDS011;56980;51.826;4.424;2022-07-29T12:48:58;6.40;;;3.00;;
69712;SDS011;56980;51.826;4.424;2022-07-29T12:51:33;5.70;;;1.90;;
69712;SDS011;56980;51.826;4.424;2022-07-29T12:54:04;7.63;;;2.50;;
69712;SDS011;56980;51.826;4.424;2022-07-29T12:56:35;5.63;;;2.00;;
69712;SDS011;56980;51.826;4.424;2022-07-29T12:59:22;8.50;;;2.23;;
69712;SDS011;56980;51.826;4.424;2022-07-29T13:01:48;3.65;;;1.92;;
69712;SDS011;56980;51.826;4.424;2022-07-29T13:04:29;6.82;;;2.33;;
69712;SDS011;56980;51.826;4.424;2022-07-29T13:07:04;5.32;;;2.00;;
69712;SDS011;56980;51.826;4.424;2022-07-29T13:09:39;6.20;;;2.50;;
69712;SDS011;56980;51.826;4.424;2022-07-29T13:12:07;6.07;;;2.07;;
69712;SDS011;56980;51.826;4.424;2022-07-29T13:14:35;5.20;;;2.05;;
69712;SDS011;56980;51.826;4.424;2022-07-29T13:17:06;6.35;;;2.05;;
69712;SDS011;56980;51.826;4.424;2022-07-29T13:22:15;6.53;;;2.10;;
69712;SDS011;56980;51.826;4.424;2022-07-29T13:24:49;6.43;;;2.10;;
69712;SDS011;56980;51.826;4.424;2022-07-29T13:27:23;5.88;;;2.15;;
69712;SDS011;56980;51.826;4.424;2022-07-29T13:29:53;5.40;;;2.47;;
69712;SDS011;56980;51.826;4.424;2022-07-29T13:32:24;5.40;;;2.65;;
69712;SDS011;56980;51.826;4.424;2022-07-29T13:34:51;5.93;;;2.20;;
69712;SDS011;56980;51.826;4.424;2022-07-29T13:37:18;7.63;;;2.40;;
69712;SDS011;56980;51.826;4.424;2022-07-29T13:39:44;5.17;;;2.20;;
69712;SDS011;56980;51.826;4.424;2022-07-29T13:42:09;7.78;;;2.30;;
69712;SDS011;56980;51.826;4.424;2022-07-29T13:44:38;3.33;;;1.93;;
69712;SDS011;56980;51.826;4.424;2022-07-29T13:47:05;8.20;;;2.47;;
69712;SDS011;56980;51.826;4.424;2022-07-29T13:49:31;8.10;;;2.25;;
69712;SDS011;56980;51.826;4.424;2022-07-29T13:51:56;4.07;;;2.00;;
69712;SDS011;56980;51.826;4.424;2022-07-29T13:54:21;7.53;;;2.60;;
69712;SDS011;56980;51.826;4.424;2022-07-29T13:56:47;5.85;;;2.60;;
69712;SDS011;56980;51.826;4.424;2022-07-29T13:59:12;8.73;;;2.20;;
69712;SDS011;56980;51.826;4.424;2022-07-29T14:01:38;5.73;;;1.97;;
69712;SDS011;56980;51.826;4.424;2022-07-29T14:04:06;4.75;;;1.90;;
69712;SDS011;56980;51.826;4.424;2022-07-29T14:06:31;7.43;;;2.27;;
69712;SDS011;56980;51.826;4.424;2022-07-29T14:08:57;6.73;;;2.13;;
69712;SDS011;56980;51.826;4.424;2022-07-29T14:11:22;3.13;;;1.90;;
69712;SDS011;56980;51.826;4.424;2022-07-29T14:13:50;9.40;;;2.58;;
69712;SDS011;56980;51.826;4.424;2022-07-29T14:16:16;5.27;;;2.53;;
69712;SDS011;56980;51.826;4.424;2022-07-29T14:18:41;8.20;;;3.03;;
69712;SDS011;56980;51.826;4.424;2022-07-29T14:21:07;5.33;;;2.00;;
69712;SDS011;56980;51.826;4.424;2022-07-29T14:23:33;6.70;;;2.00;;
69712;SDS011;56980;51.826;4.424;2022-07-29T14:25:58;4.33;;;1.87;;
69712;SDS011;56980;51.826;4.424;2022-07-29T14:28:24;10.87;;;2.30;;
69712;SDS011;56980;51.826;4.424;2022-07-29T14:30:49;7.50;;;2.28;;
69712;SDS011;56980;51.826;4.424;2022-07-29T14:33:14;5.73;;;2.63;;
69712;SDS011;56980;51.826;4.424;2022-07-29T14:35:40;4.07;;;2.00;;
69712;SDS011;56980;51.826;4.424;2022-07-29T14:38:05;8.73;;;2.27;;
69712;SDS011;56980;51.826;4.424;2022-07-29T14:40:30;3.47;;;1.80;;
69712;SDS011;56980;51.826;4.424;2022-07-29T14:42:56;4.90;;;1.80;;
69712;SDS011;56980;51.826;4.424;2022-07-29T14:45:21;5.00;;;2.00;;
69712;SDS011;56980;51.826;4.424;2022-07-29T14:47:47;4.67;;;1.80;;
69712;SDS011;56980;51.826;4.424;2022-07-29T14:50:14;6.68;;;1.65;;
69712;SDS011;56980;51.826;4.424;2022-07-29T14:52:39;4.07;;;1.97;;
69712;SDS011;56980;51.826;4.424;2022-07-29T14:55:05;5.32;;;1.90;;
69712;SDS011;56980;51.826;4.424;2022-07-29T14:57:31;4.47;;;1.83;;
69712;SDS011;56980;51.826;4.424;2022-07-29T14:59:56;6.78;;;1.90;;
69712;SDS011;56980;51.826;4.424;2022-07-29T15:02:22;3.13;;;1.70;;
69712;SDS011;56980;51.826;4.424;2022-07-29T15:04:47;5.47;;;1.80;;
69712;SDS011;56980;51.826;4.424;2022-07-29T15:07:16;4.07;;;1.50;;
69712;SDS011;56980;51.826;4.424;2022-07-29T15:09:42;7.03;;;1.90;;
69712;SDS011;56980;51.826;4.424;2022-07-29T15:12:07;5.63;;;1.98;;
69712;SDS011;56980;51.826;4.424;2022-07-29T15:14:35;5.65;;;1.80;;
69712;SDS011;56980;51.826;4.424;2022-07-29T15:17:03;4.57;;;1.88;;
69712;SDS011;56980;51.826;4.424;2022-07-29T15:19:28;4.13;;;2.00;;
69712;SDS011;56980;51.826;4.424;2022-07-29T15:21:53;5.67;;;2.33;;
69712;SDS011;56980;51.826;4.424;2022-07-29T15:24:19;5.97;;;1.90;;
69712;SDS011;56980;51.826;4.424;2022-07-29T15:26:45;4.43;;;1.73;;